createdAt,value
2019-04-25T00:23:12.393Z,0.80
2019-04-25T00:25:56.803Z,0.80
2019-04-25T00:28:22.841Z,0.70
2019-04-25T00:30:48.643Z,0.82
2019-04-25T00:33:14.436Z,0.97
2019-04-25T00:35:43.236Z,0.80
2019-04-25T00:38:12.206Z,0.70
2019-04-25T00:40:39.466Z,1.02
2019-04-25T00:43:05.547Z,0.88
2019-04-25T00:45:31.704Z,0.65
2019-04-25T00:47:57.897Z,0.70
2019-04-25T00:50:23.982Z,0.60
2019-04-25T00:52:52.168Z,0.70
2019-04-25T00:55:26.940Z,0.70
2019-04-25T00:57:47.374Z,0.72
2019-04-25T01:00:32.597Z,0.90
2019-04-25T01:03:01.618Z,1.05
2019-04-25T01:05:28.118Z,0.70
2019-04-25T01:07:54.426Z,0.90
2019-04-25T01:10:21.440Z,0.68
2019-04-25T01:12:48.468Z,0.70
2019-04-25T01:15:15.377Z,0.90
2019-04-25T01:17:41.368Z,1.00
2019-04-25T01:20:07.927Z,0.80
2019-04-25T01:22:34.922Z,0.75
2019-04-25T01:25:00.846Z,0.90
2019-04-25T01:27:26.739Z,0.90
2019-04-25T01:29:54.186Z,0.90
2019-04-25T01:32:23.775Z,0.70
2019-04-25T01:34:54.661Z,1.00
2019-04-25T01:37:21.346Z,1.10
2019-04-25T01:39:49.282Z,0.70
2019-04-25T01:42:23.623Z,0.70
2019-04-25T01:44:51.628Z,0.70
2019-04-25T01:47:17.876Z,0.65
2019-04-25T01:49:43.970Z,0.62
2019-04-25T01:52:09.902Z,0.80
2019-04-25T01:54:35.707Z,0.83
2019-04-25T01:57:01.856Z,0.70
2019-04-25T01:59:27.691Z,0.60
2019-04-25T02:01:55.378Z,0.70
2019-04-25T02:04:21.255Z,0.72
2019-04-25T02:06:47.049Z,0.70
2019-04-25T02:09:14.231Z,0.70
2019-04-25T02:11:47.923Z,0.80
2019-04-25T02:14:14.059Z,0.82
2019-04-25T02:16:39.959Z,0.68
2019-04-25T02:19:06.092Z,0.80
2019-04-25T02:21:33.434Z,0.85
2019-04-25T02:24:00.212Z,0.88
2019-04-25T02:26:26.009Z,0.70
2019-04-25T02:28:54.826Z,0.70
2019-04-25T02:31:20.027Z,0.90
2019-04-25T02:33:45.852Z,0.90
2019-04-25T02:36:11.659Z,0.80
2019-04-25T02:38:37.770Z,0.83
2019-04-25T02:41:08.423Z,0.82
2019-04-25T02:43:31.828Z,1.00
2019-04-25T02:46:17.614Z,0.80
2019-04-25T02:49:02.884Z,0.90
2019-04-25T02:51:30.322Z,1.00
2019-04-25T02:53:58.028Z,0.90
2019-04-25T02:56:31.318Z,1.07
2019-04-25T02:58:54.141Z,2.12
2019-04-25T03:01:23.535Z,1.40
2019-04-25T03:03:51.011Z,1.45
2019-04-25T03:06:17.190Z,0.80
2019-04-25T03:08:46.041Z,1.02
2019-04-25T03:11:14.684Z,1.10
2019-04-25T03:13:39.892Z,0.70
2019-04-25T03:16:09.137Z,0.80
2019-04-25T03:18:35.845Z,0.90
2019-04-25T03:21:13.391Z,0.75
2019-04-25T03:23:35.490Z,0.90
2019-04-25T03:26:03.816Z,0.80
2019-04-25T03:28:29.958Z,0.88
2019-04-25T03:30:57.298Z,1.07
2019-04-25T03:33:25.734Z,1.00
2019-04-25T03:35:51.134Z,0.95
2019-04-25T03:38:16.926Z,1.00
2019-04-25T03:40:43.946Z,0.80
2019-04-25T03:43:09.865Z,0.82
2019-04-25T03:45:35.667Z,0.80
2019-04-25T03:48:05.645Z,0.87
2019-04-25T03:50:32.002Z,0.95
2019-04-25T03:52:58.078Z,0.70
2019-04-25T03:55:24.166Z,0.88
2019-04-25T03:57:53.946Z,0.78
2019-04-25T04:00:19.730Z,0.60
2019-04-25T04:02:45.564Z,0.80
2019-04-25T04:05:13.562Z,1.10
2019-04-25T04:07:43.492Z,0.80
2019-04-25T04:10:10.030Z,0.80
2019-04-25T04:12:35.896Z,0.88
2019-04-25T04:15:03.716Z,0.80
2019-04-25T04:17:38.036Z,0.70
2019-04-25T04:20:07.113Z,0.70
2019-04-25T04:22:35.368Z,0.90
2019-04-25T04:25:03.751Z,1.10
2019-04-25T04:27:29.877Z,0.90
2019-04-25T04:29:55.976Z,1.20
2019-04-25T04:32:21.786Z,1.10
2019-04-25T04:34:47.575Z,0.70
2019-04-25T04:37:14.806Z,0.73
2019-04-25T04:39:41.300Z,0.88
2019-04-25T04:42:07.696Z,0.90
2019-04-25T04:44:34.411Z,1.10
2019-04-25T04:47:00.239Z,1.00
2019-04-25T04:49:26.271Z,1.30
2019-04-25T04:51:52.069Z,1.55
2019-04-25T04:54:17.886Z,2.17
2019-04-25T04:56:43.942Z,2.00
2019-04-25T04:59:10.818Z,2.22
2019-04-25T05:01:55.763Z,2.60
2019-04-25T05:04:25.120Z,1.57
2019-04-25T05:06:59.302Z,2.33
2019-04-25T05:09:26.241Z,1.82
2019-04-25T05:11:52.054Z,2.30
2019-04-25T05:14:17.837Z,1.97
2019-04-25T05:16:43.652Z,1.23
2019-04-25T05:19:09.815Z,1.67
2019-04-25T05:21:35.907Z,2.17
2019-04-25T05:24:01.703Z,1.35
2019-04-25T05:26:27.809Z,1.33
2019-04-25T05:28:54.950Z,2.00
2019-04-25T05:31:28.296Z,1.22
2019-04-25T05:33:54.126Z,1.47
2019-04-25T05:36:19.933Z,1.17
2019-04-25T05:38:45.718Z,1.20
2019-04-25T05:41:20.275Z,1.63
2019-04-25T05:43:46.081Z,1.90
2019-04-25T05:46:13.227Z,1.70
2019-04-25T05:48:39.077Z,1.22
2019-04-25T05:51:04.877Z,1.63
2019-04-25T05:53:30.685Z,1.30
2019-04-25T05:55:56.737Z,1.20
2019-04-25T05:58:24.540Z,1.10
2019-04-25T06:00:50.762Z,1.22
2019-04-25T06:03:17.285Z,1.25
2019-04-25T06:05:43.471Z,1.07
2019-04-25T06:08:09.589Z,0.80
2019-04-25T06:10:37.403Z,1.20
2019-04-25T06:13:17.353Z,1.30
2019-04-25T06:15:45.818Z,1.10
2019-04-25T06:18:19.874Z,1.00
2019-04-25T06:20:45.958Z,0.98
2019-04-25T06:23:13.904Z,0.95
2019-04-25T06:25:40.078Z,1.10
2019-04-25T06:28:10.567Z,1.20
2019-04-25T06:30:36.633Z,0.90
2019-04-25T06:33:03.310Z,1.98
2019-04-25T06:35:29.649Z,1.72
2019-04-25T06:37:55.736Z,1.32
2019-04-25T06:40:25.151Z,1.35
2019-04-25T06:42:51.174Z,1.00
2019-04-25T06:45:36.065Z,1.30
2019-04-25T06:48:06.594Z,1.30
2019-04-25T06:50:34.120Z,1.10
2019-04-25T06:53:00.101Z,1.30
2019-04-25T06:55:27.210Z,1.10
2019-04-25T06:57:56.271Z,1.87
2019-04-25T07:00:24.251Z,1.60
2019-04-25T07:02:50.174Z,1.52
2019-04-25T07:05:26.612Z,1.37
2019-04-25T07:07:45.452Z,1.32
2019-04-25T07:10:13.328Z,1.47
2019-04-25T07:12:39.288Z,1.22
2019-04-25T07:15:08.773Z,1.63
2019-04-25T07:17:35.042Z,1.20
2019-04-25T07:20:03.952Z,1.50
2019-04-25T07:22:29.784Z,1.53
2019-04-25T07:24:55.574Z,1.20
2019-04-25T07:27:34.069Z,1.33
2019-04-25T07:30:03.915Z,1.80
2019-04-25T07:32:46.918Z,1.80
2019-04-25T07:35:13.489Z,1.77
2019-04-25T07:37:41.749Z,1.30
2019-04-25T07:40:07.856Z,1.33
2019-04-25T07:42:35.157Z,1.07
2019-04-25T07:45:04.003Z,1.00
2019-04-25T07:47:29.994Z,1.00
2019-04-25T07:49:55.739Z,1.10
2019-04-25T07:52:23.280Z,1.10
2019-04-25T07:54:49.155Z,1.13
2019-04-25T07:57:14.841Z,0.90
2019-04-25T07:59:40.509Z,1.07
2019-04-25T08:02:06.462Z,1.00
2019-04-25T08:04:32.363Z,1.13
2019-04-25T08:06:58.272Z,0.70
2019-04-25T08:09:24.375Z,0.77
2019-04-25T08:11:50.154Z,1.20
2019-04-25T08:14:18.024Z,0.80
2019-04-25T08:16:45.878Z,0.83
2019-04-25T08:19:13.562Z,0.70
2019-04-25T08:21:39.804Z,0.83
2019-04-25T08:24:05.886Z,0.90
2019-04-25T08:26:33.855Z,1.00
2019-04-25T08:28:59.566Z,0.87
2019-04-25T08:31:25.532Z,0.90
2019-04-25T08:33:51.280Z,0.80
2019-04-25T08:36:16.926Z,1.00
2019-04-25T08:38:44.561Z,0.70
2019-04-25T08:41:10.206Z,0.70
2019-04-25T08:43:38.845Z,0.90
2019-04-25T08:46:04.263Z,1.50
2019-04-25T08:48:34.971Z,0.80
2019-04-25T08:51:03.726Z,0.90
2019-04-25T08:53:31.451Z,1.00
2019-04-25T08:56:03.726Z,0.93
2019-04-25T08:58:35.406Z,1.20
2019-04-25T09:01:10.208Z,0.70
2019-04-25T09:03:38.130Z,0.80
2019-04-25T09:06:04.224Z,0.90
2019-04-25T09:08:30.221Z,0.70
2019-04-25T09:10:55.898Z,0.87
2019-04-25T09:13:23.129Z,1.00
2019-04-25T09:15:49.543Z,1.00
2019-04-25T09:18:15.469Z,2.07
2019-04-25T09:20:43.056Z,0.90
2019-04-25T09:23:08.713Z,0.80
2019-04-25T09:25:35.854Z,0.80
2019-04-25T09:28:04.336Z,1.00
2019-04-25T09:30:30.102Z,0.80
2019-04-25T09:32:55.746Z,1.20
2019-04-25T09:35:23.473Z,0.80
2019-04-25T09:37:49.267Z,1.00
2019-04-25T09:40:16.046Z,1.07
2019-04-25T09:42:41.808Z,0.77
2019-04-25T09:45:09.879Z,0.90
2019-04-25T09:47:37.087Z,0.90
2019-04-25T09:50:06.113Z,1.17
2019-04-25T09:52:32.010Z,1.00
2019-04-25T09:54:59.549Z,0.73
2019-04-25T09:57:36.417Z,0.97
2019-04-25T10:00:03.744Z,0.60
2019-04-25T10:02:29.634Z,0.70
2019-04-25T10:04:55.513Z,0.83
2019-04-25T10:07:21.180Z,0.90
2019-04-25T10:09:47.110Z,0.73
2019-04-25T10:12:13.009Z,0.83
2019-04-25T10:14:44.703Z,1.00
2019-04-25T10:17:10.034Z,0.80
2019-04-25T10:19:35.678Z,0.70
2019-04-25T10:22:01.453Z,0.90
2019-04-25T10:24:27.207Z,0.90
2019-04-25T10:26:54.654Z,0.80
2019-04-25T10:29:20.506Z,0.77
2019-04-25T10:31:46.390Z,0.70
2019-04-25T10:34:13.961Z,0.60
2019-04-25T10:36:42.101Z,0.60
2019-04-25T10:39:11.046Z,0.60
2019-04-25T10:41:36.028Z,0.60
2019-04-25T10:44:03.323Z,0.60
2019-04-25T10:46:29.132Z,0.60
2019-04-25T10:48:56.198Z,0.60
2019-04-25T10:51:23.868Z,0.80
2019-04-25T10:53:49.625Z,0.70
2019-04-25T10:56:15.394Z,0.70
2019-04-25T10:58:41.584Z,0.57
2019-04-25T11:01:07.462Z,0.50
2019-04-25T11:03:54.430Z,1.27
2019-04-25T11:06:23.361Z,0.87
2019-04-25T11:08:49.287Z,0.60
2019-04-25T11:11:15.104Z,0.77
2019-04-25T11:13:41.705Z,0.70
2019-04-25T11:16:08.004Z,0.90
2019-04-25T11:18:34.096Z,0.60
2019-04-25T11:20:59.884Z,0.90
2019-04-25T11:23:25.638Z,0.93
2019-04-25T11:25:51.304Z,1.27
2019-04-25T11:28:17.505Z,1.00
2019-04-25T11:30:45.866Z,0.70
2019-04-25T11:33:14.326Z,0.80
2019-04-25T11:35:40.121Z,0.60
2019-04-25T11:38:08.185Z,0.63
2019-04-25T11:40:48.804Z,0.87
2019-04-25T11:43:12.330Z,0.60
2019-04-25T11:45:38.090Z,0.80
2019-04-25T11:48:05.075Z,0.60
2019-04-25T11:50:31.101Z,0.60
2019-04-25T11:52:57.175Z,0.80
2019-04-25T11:55:23.917Z,0.83
2019-04-25T11:57:51.363Z,0.73
2019-04-25T12:00:22.057Z,0.70
2019-04-25T12:02:47.538Z,0.70
2019-04-25T12:05:14.932Z,0.70
2019-04-25T12:07:41.059Z,0.70
2019-04-25T12:10:07.715Z,0.80
2019-04-25T12:12:34.719Z,0.90
2019-04-25T12:15:01.663Z,0.60
2019-04-25T12:17:27.319Z,0.70
2019-04-25T12:19:54.620Z,0.80
2019-04-25T12:22:20.665Z,0.70
2019-04-25T12:24:46.747Z,0.70
2019-04-25T12:27:12.817Z,0.90
2019-04-25T12:29:38.953Z,0.63
2019-04-25T12:32:05.224Z,0.60
2019-04-25T12:34:30.896Z,0.70
2019-04-25T12:36:57.382Z,0.80
2019-04-25T12:39:24.287Z,0.70
2019-04-25T12:41:50.474Z,0.70
2019-04-25T12:44:33.319Z,0.70
2019-04-25T12:47:06.863Z,0.70
2019-04-25T12:49:34.439Z,0.90
2019-04-25T12:52:00.766Z,1.00
2019-04-25T12:54:26.495Z,0.80
2019-04-25T12:56:53.722Z,0.60
2019-04-25T12:59:23.082Z,0.90
2019-04-25T13:01:49.537Z,1.20
2019-04-25T13:04:18.376Z,0.53
2019-04-25T13:06:44.033Z,0.90
2019-04-25T13:09:12.863Z,0.60
2019-04-25T13:11:38.542Z,1.00
2019-04-25T13:14:07.055Z,0.70
2019-04-25T13:16:34.142Z,0.70
2019-04-25T13:19:13.606Z,0.60
2019-04-25T13:21:27.932Z,0.60
2019-04-25T13:23:53.562Z,0.90
2019-04-25T13:26:21.147Z,0.53
2019-04-25T13:28:48.750Z,0.70
2019-04-25T13:31:18.927Z,0.60
2019-04-25T13:33:58.853Z,0.80
2019-04-25T13:36:24.749Z,0.70
2019-04-25T13:38:50.417Z,0.70
2019-04-25T13:41:16.120Z,0.60
2019-04-25T13:43:42.072Z,0.50
2019-04-25T13:46:07.722Z,0.70
2019-04-25T13:48:34.675Z,0.50
2019-04-25T13:51:01.218Z,1.03
2019-04-25T13:53:27.382Z,0.60
2019-04-25T13:55:53.112Z,0.60
2019-04-25T13:58:18.893Z,0.80
2019-04-25T14:00:44.807Z,0.60
2019-04-25T14:03:10.450Z,0.53
2019-04-25T14:05:36.222Z,0.77
2019-04-25T14:08:01.869Z,0.50
2019-04-25T14:10:28.123Z,0.60
2019-04-25T14:12:53.887Z,0.60
2019-04-25T14:15:21.868Z,0.50
2019-04-25T14:17:53.749Z,0.50
2019-04-25T14:20:21.917Z,1.20
2019-04-25T14:22:47.706Z,0.60
2019-04-25T14:25:14.955Z,0.60
2019-04-25T14:27:40.738Z,0.80
2019-04-25T14:30:08.413Z,0.60
2019-04-25T14:32:35.180Z,0.90
2019-04-25T14:35:01.178Z,0.60
2019-04-25T14:37:31.291Z,0.50
2019-04-25T14:39:55.354Z,0.70
2019-04-25T14:42:22.127Z,0.70
2019-04-25T14:44:49.053Z,0.60
2019-04-25T14:47:14.901Z,0.70
2019-04-25T14:49:40.566Z,0.50
2019-04-25T14:52:06.265Z,0.60
2019-04-25T14:54:39.773Z,0.60
2019-04-25T14:57:07.621Z,0.60
2019-04-25T14:59:33.874Z,0.60
2019-04-25T15:01:59.569Z,0.80
2019-04-25T15:04:25.926Z,0.80
2019-04-25T15:06:51.997Z,0.73
2019-04-25T15:09:18.148Z,0.90
2019-04-25T15:11:43.831Z,0.60
2019-04-25T15:14:09.482Z,0.60
2019-04-25T15:16:35.412Z,0.60
2019-04-25T15:19:01.080Z,0.50
2019-04-25T15:21:28.138Z,0.60
2019-04-25T15:24:00.107Z,0.60
2019-04-25T15:26:24.774Z,0.70
2019-04-25T15:28:50.858Z,0.70
2019-04-25T15:31:19.866Z,0.60
2019-04-25T15:33:45.888Z,0.70
2019-04-25T15:36:30.612Z,0.67
2019-04-25T15:39:14.965Z,0.50
2019-04-25T15:41:42.534Z,0.90
2019-04-25T15:44:15.973Z,0.70
2019-04-25T15:46:43.554Z,0.60
2019-04-25T15:49:09.188Z,0.90
2019-04-25T15:51:35.539Z,0.70
2019-04-25T15:54:01.348Z,0.60
2019-04-25T15:56:27.487Z,0.67
2019-04-25T15:58:54.211Z,0.60
2019-04-25T16:01:20.206Z,0.70
2019-04-25T16:03:46.222Z,0.60
2019-04-25T16:06:11.985Z,0.67
2019-04-25T16:08:37.645Z,0.73
2019-04-25T16:11:03.629Z,0.70
2019-04-25T16:13:30.177Z,0.80
2019-04-25T16:15:55.979Z,0.80
2019-04-25T16:18:21.938Z,1.30
2019-04-25T16:20:47.593Z,1.20
2019-04-25T16:23:13.281Z,0.90
2019-04-25T16:25:39.182Z,1.20
2019-04-25T16:28:04.967Z,0.80
2019-04-25T16:30:32.451Z,0.73
2019-04-25T16:32:58.489Z,0.90
2019-04-25T16:35:24.464Z,0.60
2019-04-25T16:37:50.349Z,0.70
2019-04-25T16:40:16.370Z,1.00
2019-04-25T16:42:42.287Z,0.60
2019-04-25T16:45:08.856Z,0.80
2019-04-25T16:47:35.154Z,0.70
2019-04-25T16:50:01.295Z,1.27
2019-04-25T16:52:27.916Z,0.60
2019-04-25T16:54:53.561Z,0.90
2019-04-25T16:57:19.241Z,0.60
2019-04-25T16:59:44.982Z,2.00
2019-04-25T17:02:11.093Z,0.80
2019-04-25T17:04:37.538Z,0.70
2019-04-25T17:07:04.901Z,0.90
2019-04-25T17:09:30.874Z,1.17
2019-04-25T17:11:57.413Z,1.10
2019-04-25T17:14:24.999Z,1.23
2019-04-25T17:17:09.696Z,1.00
2019-04-25T17:19:37.279Z,0.90
2019-04-25T17:22:02.963Z,0.97
2019-04-25T17:24:28.827Z,1.30
2019-04-25T17:26:54.732Z,0.90
2019-04-25T17:29:20.725Z,1.33
2019-04-25T17:31:51.233Z,1.63
2019-04-25T17:34:18.807Z,1.10
2019-04-25T17:36:49.250Z,1.67
2019-04-25T17:39:34.020Z,2.23
2019-04-25T17:42:01.399Z,2.03
2019-04-25T17:44:27.373Z,2.00
2019-04-25T17:47:05.640Z,2.10
2019-04-25T17:49:21.007Z,1.93
2019-04-25T17:51:46.917Z,1.90
2019-04-25T17:54:12.571Z,1.00
2019-04-25T17:56:38.568Z,1.03
2019-04-25T17:59:04.533Z,0.80
2019-04-25T18:01:30.315Z,1.23
2019-04-25T18:03:56.152Z,1.20
2019-04-25T18:06:21.967Z,0.80
2019-04-25T18:08:47.657Z,0.80
2019-04-25T18:11:13.588Z,0.90
2019-04-25T18:13:40.110Z,1.17
2019-04-25T18:16:20.567Z,1.30
2019-04-25T18:18:51.345Z,1.10
2019-04-25T18:21:17.425Z,1.20
2019-04-25T18:23:57.484Z,1.10
2019-04-25T18:26:35.234Z,0.80
2019-04-25T18:29:06.370Z,1.07
2019-04-25T18:31:32.290Z,1.00
2019-04-25T18:33:59.880Z,1.00
2019-04-25T18:36:37.316Z,1.53
2019-04-25T18:39:11.712Z,1.20
2019-04-25T18:41:41.908Z,1.10
2019-04-25T18:44:09.487Z,1.50
2019-04-25T18:46:40.498Z,1.03
2019-04-25T18:49:06.290Z,1.00
2019-04-25T18:51:32.224Z,1.40
2019-04-25T18:54:00.043Z,1.00
2019-04-25T18:56:33.362Z,1.37
2019-04-25T18:59:17.932Z,1.30
2019-04-25T19:02:02.126Z,0.93
2019-04-25T19:04:42.058Z,1.23
2019-04-25T19:07:07.762Z,1.03
2019-04-25T19:09:33.416Z,0.70
2019-04-25T19:11:59.081Z,0.90
2019-04-25T19:14:27.065Z,0.97
2019-04-25T19:16:52.413Z,0.93
2019-04-25T19:19:18.071Z,0.80
2019-04-25T19:21:43.749Z,1.10
2019-04-25T19:24:09.697Z,1.07
2019-04-25T19:26:35.392Z,0.90
2019-04-25T19:29:01.053Z,0.90
2019-04-25T19:31:26.748Z,0.97
2019-04-25T19:33:52.405Z,0.80
2019-04-25T19:36:19.329Z,0.80
2019-04-25T19:38:45.940Z,0.70
2019-04-25T19:41:13.599Z,0.70
2019-04-25T19:43:44.577Z,0.75
2019-04-25T19:46:10.313Z,1.07
2019-04-25T19:48:35.955Z,0.80
2019-04-25T19:51:01.857Z,0.77
2019-04-25T19:53:30.566Z,0.70
2019-04-25T19:55:56.497Z,0.90
2019-04-25T19:58:25.214Z,0.90
2019-04-25T20:00:51.046Z,0.70
2019-04-25T20:03:27.931Z,1.07
2019-04-25T20:06:08.073Z,0.90
2019-04-25T20:08:52.879Z,1.00
2019-04-25T20:11:20.501Z,1.05
2019-04-25T20:13:47.030Z,0.80
2019-04-25T20:16:12.836Z,0.80
2019-04-25T20:18:38.485Z,1.20
2019-04-25T20:21:04.183Z,0.70
2019-04-25T20:23:29.813Z,0.80
2019-04-25T20:25:57.353Z,0.63
2019-04-25T20:28:23.133Z,0.80
2019-04-25T20:30:48.787Z,0.77
2019-04-25T20:33:14.463Z,0.87
2019-04-25T20:35:40.410Z,1.00
2019-04-25T20:38:06.195Z,0.93
2019-04-25T20:40:31.862Z,0.70
2019-04-25T20:42:57.538Z,0.87
2019-04-25T20:45:23.448Z,0.80
2019-04-25T20:47:50.016Z,0.80
2019-04-25T20:50:15.757Z,0.90
2019-04-25T20:52:41.431Z,1.00
2019-04-25T20:55:07.469Z,1.00
2019-04-25T20:57:33.417Z,0.80
2019-04-25T20:59:59.370Z,1.00
2019-04-25T21:02:25.105Z,1.33
2019-04-25T21:04:50.851Z,1.00
2019-04-25T21:07:16.495Z,1.10
2019-04-25T21:09:42.169Z,0.90
2019-04-25T21:12:08.256Z,1.10
2019-04-25T21:14:51.032Z,0.90
2019-04-25T21:17:21.526Z,1.12
2019-04-25T21:19:52.812Z,1.20
2019-04-25T21:22:18.657Z,1.02
2019-04-25T21:24:44.310Z,0.90
2019-04-25T21:27:10.341Z,1.10
2019-04-25T21:29:36.112Z,1.10
2019-04-25T21:32:01.792Z,1.03
2019-04-25T21:34:28.475Z,1.00
2019-04-25T21:36:55.563Z,1.35
2019-04-25T21:39:35.831Z,1.20
2019-04-25T21:42:03.492Z,1.40
2019-04-25T21:44:29.478Z,1.02
2019-04-25T21:46:55.140Z,1.10
2019-04-25T21:49:22.017Z,1.00
2019-04-25T21:51:47.695Z,1.10
2019-04-25T21:54:13.341Z,0.90
2019-04-25T21:56:39.559Z,1.00
2019-04-25T21:59:05.508Z,1.00
2019-04-25T22:01:33.439Z,1.10
2019-04-25T22:03:59.348Z,1.05
2019-04-25T22:06:26.076Z,1.15
2019-04-25T22:08:51.857Z,1.10
2019-04-25T22:11:17.593Z,1.00
2019-04-25T22:13:43.799Z,0.85
2019-04-25T22:16:09.745Z,0.90
2019-04-25T22:18:35.933Z,0.90
2019-04-25T22:21:02.331Z,1.00
2019-04-25T22:23:28.211Z,0.90
2019-04-25T22:25:54.019Z,1.00
2019-04-25T22:28:20.094Z,0.95
2019-04-25T22:30:48.274Z,1.30
2019-04-25T22:33:22.248Z,1.02
2019-04-25T22:35:49.852Z,1.20
2019-04-25T22:38:15.911Z,1.27
2019-04-25T22:40:41.579Z,1.10
2019-04-25T22:43:08.043Z,1.10
2019-04-25T22:45:34.116Z,0.78
2019-04-25T22:48:00.351Z,1.17
2019-04-25T22:50:26.972Z,1.22
2019-04-25T22:52:52.641Z,1.10
2019-04-25T22:55:18.285Z,1.13
2019-04-25T22:57:44.528Z,1.60
2019-04-25T23:00:12.394Z,1.10
2019-04-25T23:02:49.488Z,0.80
2019-04-25T23:05:23.176Z,1.22
2019-04-25T23:07:49.120Z,1.35
2019-04-25T23:10:15.183Z,1.50
2019-04-25T23:12:40.822Z,0.97
2019-04-25T23:15:06.954Z,1.00
2019-04-25T23:17:32.663Z,1.00
2019-04-25T23:19:58.931Z,1.12
2019-04-25T23:22:24.614Z,1.00
2019-04-25T23:24:55.661Z,0.97
2019-04-25T23:27:38.669Z,1.00
2019-04-25T23:30:06.485Z,1.15
2019-04-25T23:32:32.618Z,1.12
2019-04-25T23:34:58.269Z,1.30
2019-04-25T23:37:23.936Z,1.03
2019-04-25T23:39:49.589Z,1.43
2019-04-25T23:42:15.641Z,0.80
2019-04-25T23:44:41.985Z,0.90
2019-04-25T23:47:08.312Z,0.93
2019-04-25T23:49:34.109Z,1.15
2019-04-25T23:52:00.330Z,1.00
2019-04-25T23:54:26.012Z,1.10
2019-04-25T23:56:51.857Z,1.20
2019-04-25T23:59:17.856Z,0.80
